Time;durP1;ratioP1;P1;durP2;ratioP2;P2;SDS_P1;SDS_P2;PMS_P1;PMS_P2;Temp;Humidity;BMP_temperature;BMP_pressure;BME280_temperature;BME280_humidity;BME280_pressure;Samples;Min_cycle;Max_cycle;Signal;HPM_P1;HPM_P2
2022/06/09 00:00:52;;;;;;;26.17;15.15;;;12.20;99.90;;;;;;5076957;28;20023;-86
2022/06/09 00:03:23;;;;;;;24.45;15.52;;;12.20;99.90;;;;;;5076924;28;20031;-86
2022/06/09 00:05:49;;;;;;;;;;;12.20;99.90;;;;;;5094126;28;20438;-85
2022/06/09 00:08:16;;;;;;;23.95;15.30;;;12.20;99.90;;;;;;5093555;28;19947;-85
2022/06/09 00:10:51;;;;;;;28.40;16.92;;;12.30;99.90;;;;;;5076205;28;20032;-86
2022/06/09 00:13:17;;;;;;;28.65;17.15;;;12.30;99.90;;;;;;5076053;28;20391;-86
2022/06/09 00:15:43;;;;;;;25.25;16.70;;;12.30;99.90;;;;;;5076794;28;20043;-85
2022/06/09 00:18:09;;;;;;;22.05;16.40;;;12.40;99.90;;;;;;5076825;28;20039;-85
2022/06/09 00:20:34;;;;;;;22.95;15.80;;;12.30;99.90;;;;;;5076736;28;20797;-85
2022/06/09 00:23:00;;;;;;;22.30;15.30;;;12.40;99.90;;;;;;5093497;28;20111;-85
2022/06/09 00:25:26;;;;;;;22.05;16.05;;;12.30;99.90;;;;;;5076518;28;20024;-85
2022/06/09 00:27:52;;;;;;;23.13;16.15;;;12.30;99.90;;;;;;5076749;28;20035;-86
2022/06/09 00:30:18;;;;;;;23.30;16.60;;;12.20;99.90;;;;;;5076554;28;20031;-86
2022/06/09 00:32:45;;;;;;;27.77;16.95;;;12.30;99.90;;;;;;5093340;28;20066;-85
2022/06/09 00:35:11;;;;;;;24.58;15.27;;;12.20;99.90;;;;;;5076120;28;20028;-85
2022/06/09 00:37:37;;;;;;;21.85;15.95;;;12.10;99.90;;;;;;5076336;28;20032;-86
2022/06/09 00:40:04;;;;;;;26.10;15.73;;;12.10;99.90;;;;;;5076522;28;20035;-86
2022/06/09 00:42:32;;;;;;;26.55;17.20;;;12.10;99.90;;;;;;5075802;28;20058;-85
2022/06/09 00:45:34;;;;;;;27.80;16.77;;;12.10;99.90;;;;;;5075907;28;20032;-85
2022/06/09 00:48:23;;;;;;;25.50;16.98;;;12.00;99.90;;;;;;5075970;28;20032;-86
2022/06/09 00:51:09;;;;;;;29.30;17.13;;;12.00;99.90;;;;;;5092925;28;20733;-86
2022/06/09 00:53:38;;;;;;;32.45;17.83;;;12.00;99.90;;;;;;5092652;28;20103;-86
2022/06/09 00:56:06;;;;;;;28.88;18.38;;;12.00;99.90;;;;;;5075115;28;20036;-86
2022/06/09 00:59:28;;;;;;;29.48;15.63;;;11.90;99.90;;;;;;5093120;28;20527;-86
2022/06/09 01:01:54;;;;;;;22.05;14.88;;;11.90;99.90;;;;;;5092906;28;20056;-86
2022/06/09 01:04:22;;;;;;;26.15;14.40;;;11.90;99.90;;;;;;5075862;28;20115;-85
2022/06/09 01:06:56;;;;;;;21.25;13.68;;;11.90;99.90;;;;;;5092317;28;20032;-85
2022/06/09 01:09:25;;;;;;;24.00;14.35;;;11.80;99.90;;;;;;5075818;28;20062;-86
2022/06/09 01:11:53;;;;;;;23.92;13.57;;;11.80;99.90;;;;;;5092439;28;20036;-85
2022/06/09 01:14:23;;;;;;;28.73;14.23;;;11.80;99.90;;;;;;5075233;28;20059;-86
2022/06/09 01:16:49;;;;;;;20.40;13.50;;;11.80;99.90;;;;;;5075354;28;20558;-86
2022/06/09 01:19:44;;;;;;;28.45;13.27;;;11.70;99.90;;;;;;5092067;28;20107;-85
2022/06/09 01:22:29;;;;;;;23.20;13.57;;;11.70;99.90;;;;;;5005234;28;20128;-85
2022/06/09 01:25:16;;;;;;;25.45;14.13;;;11.70;99.90;;;;;;5092097;28;20429;-85
2022/06/09 01:27:51;;;;;;;25.67;14.85;;;11.70;99.90;;;;;;5075317;28;20055;-85
2022/06/09 01:30:39;;;;;;;26.23;15.40;;;11.70;99.90;;;;;;5093496;28;20028;-86
2022/06/09 01:33:14;;;;;;;24.67;15.07;;;11.60;99.90;;;;;;5037862;28;20048;-86
2022/06/09 01:35:46;;;;;;;32.75;15.48;;;11.60;99.90;;;;;;5075079;28;20495;-86
2022/06/09 01:38:12;;;;;;;28.52;16.10;;;11.60;99.90;;;;;;5075284;28;20032;-86
2022/06/09 01:40:38;;;;;;;24.00;15.00;;;11.60;99.90;;;;;;5074960;28;20367;-85
2022/06/09 01:43:05;;;;;;;26.42;15.27;;;11.60;99.90;;;;;;5074632;28;20499;-86
2022/06/09 01:46:04;;;;;;;27.48;14.15;;;11.50;99.90;;;;;;5092125;28;20024;-85
2022/06/09 01:48:31;;;;;;;28.05;16.13;;;11.40;99.90;;;;;;5075182;28;20094;-85
2022/06/09 01:51:00;;;;;;;31.33;15.45;;;11.40;99.90;;;;;;5075011;28;20056;-85
2022/06/09 01:53:50;;;;;;;35.17;17.00;;;11.30;99.90;;;;;;5074879;28;20040;-85
2022/06/09 01:56:28;;;;;;;33.83;16.50;;;11.30;99.90;;;;;;5074406;28;20134;-86
2022/06/09 01:59:00;;;;;;;28.63;17.08;;;11.20;99.90;;;;;;5091733;28;20050;-86
2022/06/09 02:01:36;;;;;;;38.72;18.17;;;11.20;99.90;;;;;;5074958;28;20028;-85
2022/06/09 02:04:07;;;;;;;31.05;17.45;;;11.20;99.90;;;;;;5074841;28;20024;-85
2022/06/09 02:06:35;;;;;;;32.10;17.77;;;11.20;99.90;;;;;;5074537;28;20122;-86
2022/06/09 02:09:02;;;;;;;32.38;18.27;;;11.20;99.90;;;;;;5074993;28;20039;-85
2022/06/09 02:11:28;;;;;;;34.35;19.05;;;11.20;99.90;;;;;;5074889;28;20032;-86
2022/06/09 02:13:56;;;;;;;37.40;19.20;;;11.20;99.90;;;;;;5074307;28;20036;-86
2022/06/09 02:16:23;;;;;;;38.17;20.85;;;11.10;99.90;;;;;;5074627;28;20044;-85
2022/06/09 02:18:53;;;;;;;39.97;21.15;;;11.10;99.90;;;;;;5074796;28;20165;-86
2022/06/09 02:21:25;;;;;;;46.83;22.02;;;11.10;99.90;;;;;;5074648;28;20035;-85
2022/06/09 02:23:52;;;;;;;38.45;21.60;;;11.10;99.90;;;;;;5074301;28;20028;-85
2022/06/09 02:26:18;;;;;;;45.72;20.90;;;11.00;99.90;;;;;;5074543;28;20528;-86
2022/06/09 02:28:44;;;;;;;40.00;20.58;;;11.10;99.90;;;;;;5074642;28;20411;-85
2022/06/09 02:31:11;;;;;;;47.05;21.05;;;11.20;99.90;;;;;;5074405;28;20036;-85
2022/06/09 02:33:37;;;;;;;46.55;23.05;;;11.30;99.90;;;;;;5074708;28;20043;-85
2022/06/09 02:36:03;;;;;;;54.25;25.33;;;11.30;99.90;;;;;;5091689;28;20086;-85
2022/06/09 02:38:28;;;;;;;58.15;26.17;;;11.30;99.90;;;;;;5074880;28;20058;-85
2022/06/09 02:40:54;;;;;;;58.85;27.67;;;11.40;99.90;;;;;;5091495;28;20115;-85
2022/06/09 02:43:21;;;;;;;59.42;28.38;;;11.40;99.90;;;;;;5090726;28;20036;-85
2022/06/09 02:45:47;;;;;;;54.55;27.35;;;11.40;99.90;;;;;;5091477;28;20039;-86
2022/06/09 02:48:13;;;;;;;60.75;27.13;;;11.40;99.90;;;;;;5074442;28;20032;-85
2022/06/09 02:50:40;;;;;;;51.40;25.40;;;11.50;99.90;;;;;;5091089;28;20669;-86
2022/06/09 02:53:07;;;;;;;54.60;26.38;;;11.50;99.90;;;;;;5074135;28;20032;-86
2022/06/09 02:55:34;;;;;;;66.63;29.55;;;11.50;99.90;;;;;;5091057;28;20032;-85
2022/06/09 02:58:01;;;;;;;59.35;28.40;;;11.60;99.90;;;;;;5091238;28;20036;-85
2022/06/09 03:00:27;;;;;;;68.55;28.95;;;11.60;99.90;;;;;;5074215;28;20127;-86
2022/06/09 03:02:59;;;;;;;66.18;29.63;;;11.60;99.90;;;;;;5091467;28;20028;-85
2022/06/09 03:05:26;;;;;;;72.97;30.63;;;11.60;99.90;;;;;;5090804;28;20032;-85
2022/06/09 03:07:51;;;;;;;68.00;31.45;;;11.70;99.90;;;;;;5073673;28;20036;-86
2022/06/09 03:10:17;;;;;;;62.00;30.38;;;11.70;99.90;;;;;;5091220;28;20043;-86
2022/06/09 03:16:30;;;;;;;67.00;28.83;;;11.60;99.90;;;;;;5092578;28;20624;-85
2022/06/09 03:18:56;;;;;;;59.65;29.67;;;11.60;99.90;;;;;;5074297;28;20036;-86
2022/06/09 03:21:22;;;;;;;62.42;28.35;;;11.50;99.90;;;;;;5078094;28;20739;-85
2022/06/09 03:24:16;;;;;;;59.70;30.52;;;11.50;99.90;;;;;;5077581;28;20032;-85
2022/06/09 03:26:42;;;;;;;61.83;28.27;;;11.60;99.90;;;;;;5094159;28;20032;-84
2022/06/09 03:29:07;;;;;;;71.38;30.30;;;11.60;99.90;;;;;;5094049;28;20038;-85
2022/06/09 03:31:34;;;;;;;54.00;28.00;;;11.70;99.90;;;;;;5077064;28;20059;-84
2022/06/09 03:34:02;;;;;;;54.97;27.95;;;11.70;99.90;;;;;;5076854;28;20080;-85
2022/06/09 03:36:29;;;;;;;64.75;28.90;;;11.70;99.90;;;;;;5093802;28;20035;-85
2022/06/09 03:38:55;;;;;;;57.33;28.42;;;11.70;99.90;;;;;;5076769;28;20036;-85
2022/06/09 03:41:39;;;;;;;49.30;26.15;;;11.80;99.90;;;;;;5076541;28;20686;-85
2022/06/09 03:44:05;;;;;;;55.60;24.88;;;11.80;99.90;;;;;;5093621;28;20028;-85
2022/06/09 03:46:32;;;;;;;52.00;25.65;;;11.80;99.90;;;;;;5076802;28;20054;-85
2022/06/09 03:48:57;;;;;;;54.08;25.92;;;11.70;99.90;;;;;;5077187;28;20040;-85
2022/06/09 03:51:23;;;;;;;47.67;23.48;;;11.70;99.90;;;;;;5076891;28;20391;-85
2022/06/09 03:53:49;;;;;;;45.00;25.83;;;11.70;99.90;;;;;;5076761;28;20036;-85
2022/06/09 03:56:18;;;;;;;44.03;23.45;;;11.70;99.90;;;;;;5076696;28;20077;-85
2022/06/09 03:58:45;;;;;;;51.40;26.52;;;11.70;99.90;;;;;;5076728;28;20081;-85
2022/06/09 04:01:17;;;;;;;51.38;26.33;;;11.70;99.90;;;;;;5077215;28;20164;-85
2022/06/09 04:03:47;;;;;;;49.05;26.50;;;11.80;99.90;;;;;;5077112;28;20048;-84
2022/06/09 04:06:20;;;;;;;50.55;25.13;;;11.70;99.90;;;;;;5094241;28;20376;-84
2022/06/09 04:08:47;;;;;;;56.88;26.80;;;11.70;99.90;;;;;;5093932;28;20066;-85
2022/06/09 04:11:12;;;;;;;50.30;27.17;;;11.70;99.90;;;;;;5093820;28;20811;-85
2022/06/09 04:13:38;;;;;;;47.47;27.45;;;11.80;99.90;;;;;;5076797;28;20127;-85
2022/06/09 04:16:11;;;;;;;53.33;28.10;;;11.80;99.90;;;;;;5075862;28;20494;-85
2022/06/09 04:18:36;;;;;;;46.30;27.63;;;11.80;99.90;;;;;;5076587;28;20036;-84
2022/06/09 04:21:02;;;;;;;45.78;26.30;;;11.80;99.90;;;;;;5076538;28;20388;-84
2022/06/09 04:23:28;;;;;;;48.83;27.15;;;11.80;99.90;;;;;;5076100;28;20035;-84
2022/06/09 04:25:54;;;;;;;51.85;26.40;;;11.80;99.90;;;;;;5076532;28;20687;-85
2022/06/09 04:28:20;;;;;;;43.85;26.45;;;11.80;99.90;;;;;;5076433;28;20806;-84
2022/06/09 04:30:46;;;;;;;42.55;25.85;;;11.80;99.90;;;;;;5075932;28;20032;-85
2022/06/09 04:33:12;;;;;;;45.30;25.05;;;11.80;99.90;;;;;;5075824;28;20127;-85
2022/06/09 04:35:38;;;;;;;46.55;25.60;;;11.80;99.90;;;;;;5076130;28;20122;-85
2022/06/09 04:38:04;;;;;;;40.80;23.88;;;11.80;99.90;;;;;;5093016;28;20461;-85
2022/06/09 04:40:34;;;;;;;47.55;25.25;;;11.80;99.90;;;;;;5076134;28;20081;-85
2022/06/09 04:43:01;;;;;;;42.75;22.38;;;11.80;99.90;;;;;;5075646;28;20114;-84
2022/06/09 04:45:27;;;;;;;30.65;21.70;;;11.80;99.90;;;;;;5075727;28;20526;-84
2022/06/09 04:47:53;;;;;;;38.05;20.40;;;11.80;99.90;;;;;;5092522;28;20183;-85
2022/06/09 04:50:19;;;;;;;29.45;19.17;;;11.80;99.90;;;;;;5075570;28;20115;-85
2022/06/09 04:52:46;;;;;;;31.58;17.25;;;11.80;99.90;;;;;;5075448;28;20080;-85
2022/06/09 04:55:12;;;;;;;29.95;17.83;;;11.80;99.90;;;;;;5075328;28;20043;-85
2022/06/09 04:57:37;;;;;;;31.73;17.15;;;11.70;99.90;;;;;;5075629;28;20567;-84
2022/06/09 05:00:06;;;;;;;28.45;17.85;;;11.70;99.90;;;;;;5075803;28;20076;-85
2022/06/09 05:02:32;;;;;;;27.77;16.25;;;11.80;99.90;;;;;;5092974;28;20076;-84
2022/06/09 05:04:58;;;;;;;26.02;16.75;;;11.80;99.90;;;;;;5092376;28;20479;-85
2022/06/09 05:07:23;;;;;;;35.10;17.88;;;11.70;99.90;;;;;;5075800;28;20039;-85
2022/06/09 05:09:49;;;;;;;28.85;16.88;;;11.70;99.90;;;;;;5075584;28;20028;-84
2022/06/09 05:12:15;;;;;;;28.95;17.00;;;11.70;99.90;;;;;;5075611;28;20032;-84
2022/06/09 05:14:41;;;;;;;25.58;16.02;;;11.80;99.90;;;;;;5092214;28;20036;-84
2022/06/09 05:17:07;;;;;;;26.17;16.73;;;12.00;99.90;;;;;;5075384;28;20898;-85
2022/06/09 05:19:33;;;;;;;24.15;15.70;;;12.10;99.90;;;;;;5075349;28;20032;-84
2022/06/09 05:21:58;;;;;;;26.50;15.45;;;12.10;99.90;;;;;;5075224;28;20042;-84
2022/06/09 05:24:25;;;;;;;24.23;14.30;;;11.90;99.90;;;;;;5074478;28;20032;-84
2022/06/09 05:27:14;;;;;;;31.38;15.43;;;11.90;99.90;;;;;;5092320;28;20024;-85
2022/06/09 05:29:41;;;;;;;22.05;14.40;;;11.90;99.90;;;;;;5092155;28;20034;-84
2022/06/09 05:32:08;;;;;;;18.25;13.13;;;12.00;99.90;;;;;;5093372;28;20032;-84
2022/06/09 05:34:34;;;;;;;25.60;13.38;;;12.00;99.90;;;;;;5075202;28;20035;-85
2022/06/09 05:37:00;;;;;;;19.15;12.13;;;12.10;99.90;;;;;;5092328;28;20391;-85
2022/06/09 05:45:57;;;;;;;22.27;9.82;;;12.90;99.90;;;;;;5093622;28;20128;-84
2022/06/09 05:48:23;;;;;;;14.10;9.85;;;12.70;99.90;;;;;;5092979;28;20467;-84
2022/06/09 05:50:50;;;;;;;16.20;9.52;;;12.60;99.90;;;;;;5074345;28;20089;-83
2022/06/09 05:53:16;;;;;;;13.52;9.15;;;12.50;99.90;;;;;;5091275;28;20039;-84
2022/06/09 05:55:42;;;;;;;16.95;10.52;;;12.60;99.90;;;;;;5074248;28;20032;-83
2022/06/09 05:58:08;;;;;;;21.10;9.75;;;12.70;99.90;;;;;;5073890;28;20036;-84
2022/06/09 06:00:34;;;;;;;12.60;7.75;;;13.00;99.90;;;;;;5091040;28;20080;-86
2022/06/09 06:03:00;;;;;;;17.85;8.13;;;13.20;99.90;;;;;;5074011;28;20031;-85
2022/06/09 06:08:10;;;;;;;14.57;8.82;;;13.10;99.90;;;;;;5091158;28;20028;-85
2022/06/09 06:14:23;;;;;;;19.33;8.75;;;13.10;99.90;;;;;;5092542;28;20071;-85
2022/06/09 06:16:50;;;;;;;17.33;8.57;;;13.30;99.90;;;;;;5073996;28;20094;-85
2022/06/09 06:19:18;;;;;;;16.85;8.23;;;13.50;99.90;;;;;;5090858;28;20020;-84
2022/06/09 06:21:45;;;;;;;12.88;7.95;;;13.70;99.90;;;;;;5074214;28;20031;-84
2022/06/09 06:24:12;;;;;;;17.77;7.65;;;13.60;99.90;;;;;;5091654;28;20101;-84
2022/06/09 06:26:56;;;;;;;9.35;6.95;;;13.70;99.90;;;;;;5090868;28;20028;-84
2022/06/09 06:29:24;;;;;;;8.35;6.43;;;14.10;99.90;;;;;;5073914;28;20040;-84
2022/06/09 06:31:51;;;;;;;13.25;6.95;;;14.40;99.90;;;;;;5073667;28;20039;-84
2022/06/09 06:34:17;;;;;;;8.70;5.97;;;14.80;99.90;;;;;;5073712;28;20032;-85
2022/06/09 06:36:43;;;;;;;8.15;6.60;;;15.10;99.90;;;;;;5073560;28;20067;-85
2022/06/09 06:39:09;;;;;;;9.48;7.13;;;14.90;99.90;;;;;;5090624;28;20116;-83
2022/06/09 06:41:35;;;;;;;10.95;7.63;;;14.50;99.90;;;;;;5073451;28;20781;-82
2022/06/09 06:44:01;;;;;;;11.60;7.68;;;14.30;99.90;;;;;;5073694;28;20119;-85
2022/06/09 06:46:27;;;;;;;12.35;6.43;;;14.10;99.90;;;;;;5074279;28;20398;-85
2022/06/09 06:48:55;;;;;;;14.02;7.55;;;13.80;99.90;;;;;;5073878;28;20039;-85
2022/06/09 06:51:22;;;;;;;11.88;6.97;;;14.00;99.90;;;;;;5073087;28;20036;-84
2022/06/09 06:53:48;;;;;;;13.15;7.20;;;14.10;99.90;;;;;;5075716;28;20063;-84
2022/06/09 06:56:14;;;;;;;9.65;6.35;;;14.00;99.90;;;;;;5096118;28;20059;-85
2022/06/09 06:58:39;;;;;;;11.60;5.97;;;14.10;99.90;;;;;;5094892;28;20543;-82
2022/06/09 07:01:05;;;;;;;12.75;6.28;;;14.20;99.90;;;;;;5077999;28;20023;-83
2022/06/09 07:03:32;;;;;;;12.98;5.20;;;14.40;99.90;;;;;;5077574;28;20085;-84
2022/06/09 07:05:58;;;;;;;11.55;4.68;;;14.60;99.90;;;;;;5095814;28;20682;-83
2022/06/09 07:08:24;;;;;;;9.65;4.82;;;15.20;99.90;;;;;;5094309;28;20036;-84
2022/06/09 07:10:52;;;;;;;9.52;5.07;;;15.60;99.90;;;;;;5093888;28;20043;-84
2022/06/09 07:13:18;;;;;;;14.88;4.93;;;15.40;99.90;;;;;;5094193;28;20036;-85
2022/06/09 07:19:31;;;;;;;6.38;3.42;;;16.50;99.90;;;;;;5096298;28;20039;-83
2022/06/09 07:21:58;;;;;;;11.75;3.90;;;18.40;99.90;;;;;;5077796;28;20492;-84
2022/06/09 07:24:30;;;;;;;8.38;4.95;;;18.20;99.90;;;;;;5095602;28;20110;-84
2022/06/09 07:26:56;;;;;;;10.27;5.03;;;16.70;99.90;;;;;;5094300;28;20024;-84
2022/06/09 07:29:21;;;;;;;10.27;4.88;;;15.50;99.90;;;;;;5077497;28;20032;-84
2022/06/09 07:31:47;;;;;;;19.10;5.30;;;14.70;99.90;;;;;;5077231;28;20665;-83
2022/06/09 07:34:13;;;;;;;14.95;5.70;;;14.40;99.90;;;;;;5095249;28;20028;-85
2022/06/09 07:36:40;;;;;;;10.35;5.05;;;15.50;99.90;;;;;;5077614;28;20531;-84
2022/06/09 07:39:06;;;;;;;13.25;6.78;;;15.70;99.90;;;;;;5077260;28;20502;-83
2022/06/09 07:41:32;;;;;;;17.67;8.52;;;15.60;99.90;;;;;;5093579;28;20131;-84
2022/06/09 07:44:01;;;;;;;11.02;6.22;;;15.40;99.90;;;;;;5093637;28;20056;-84
2022/06/09 07:47:10;;;;;;;14.20;5.95;;;15.70;99.90;;;;;;5077086;28;20085;-84
2022/06/09 07:49:36;;;;;;;10.10;5.28;;;15.70;99.90;;;;;;5094985;28;20032;-84
2022/06/09 07:55:50;;;;;;;13.55;6.55;;;15.70;99.90;;;;;;5095376;28;20039;-83
2022/06/09 07:58:17;;;;;;;14.13;6.78;;;15.30;99.90;;;;;;5076493;28;20032;-84
2022/06/09 08:00:43;;;;;;;11.60;5.25;;;15.20;99.90;;;;;;5093934;28;20649;-85
2022/06/09 08:03:15;;;;;;;15.75;4.72;;;16.60;99.90;;;;;;5076804;28;20086;-85
2022/06/09 08:05:41;;;;;;;10.95;3.90;;;18.40;99.90;;;;;;5076564;28;20047;-85
2022/06/09 08:08:07;;;;;;;15.35;4.93;;;18.50;99.90;;;;;;5076899;28;20029;-85
2022/06/09 08:10:33;;;;;;;14.25;4.10;;;17.60;99.90;;;;;;5076645;28;20115;-85
2022/06/09 08:13:01;;;;;;;13.80;4.15;;;17.00;99.90;;;;;;5076415;28;20048;-84
2022/06/09 08:15:45;;;;;;;8.60;3.38;;;17.10;99.90;;;;;;5075801;28;20044;-83
2022/06/09 08:18:11;;;;;;;12.23;4.22;;;18.60;99.90;;;;;;5076214;28;20437;-84
2022/06/09 08:20:39;;;;;;;12.25;3.75;;;19.60;99.90;;;;;;5093259;28;20039;-84
2022/06/09 08:23:09;;;;;;;11.20;4.18;;;19.00;99.90;;;;;;5076154;28;20077;-83
2022/06/09 08:25:36;;;;;;;13.77;4.85;;;17.90;99.90;;;;;;5076338;28;20032;-84
2022/06/09 08:28:03;;;;;;;10.63;5.30;;;17.00;99.90;;;;;;5075794;28;20031;-83
2022/06/09 08:30:30;;;;;;;12.73;4.68;;;16.50;99.90;;;;;;5075923;28;20032;-83
2022/06/09 08:32:57;;;;;;;9.60;3.90;;;17.00;99.90;;;;;;5075895;28;20028;-83
2022/06/09 08:35:23;;;;;;;14.73;4.35;;;18.40;99.90;;;;;;5092573;28;20063;-84
2022/06/09 08:37:51;;;;;;;10.30;4.15;;;19.40;99.90;;;;;;5075761;28;20032;-83
2022/06/09 08:40:24;;;;;;;15.13;4.35;;;18.80;99.90;;;;;;5075412;28;20027;-84
2022/06/09 08:43:10;;;;;;;9.88;4.22;;;18.10;99.90;;;;;;5092249;28;20020;-84
2022/06/09 08:49:33;;;;;;;6.47;2.75;;;19.10;99.90;;;;;;5093511;28;20526;-83
2022/06/09 08:52:04;;;;;;;9.13;3.00;;;18.30;99.90;;;;;;5074451;28;20040;-84
2022/06/09 08:55:08;;;;;;;11.88;3.28;;;19.00;99.90;;;;;;5092158;28;20028;-84
2022/06/09 08:57:35;;;;;;;11.40;2.97;;;20.20;99.90;;;;;;5092575;28;20120;-84
2022/06/09 09:00:03;;;;;;;8.52;2.15;;;21.10;99.90;;;;;;5075487;28;20388;-83
2022/06/09 09:02:36;;;;;;;6.88;2.40;;;21.50;99.90;;;;;;5092631;28;20161;-83
2022/06/09 09:05:24;;;;;;;8.32;2.83;;;20.40;99.90;;;;;;5092512;28;20106;-83
2022/06/09 09:07:54;;;;;;;10.18;2.22;;;20.30;99.90;;;;;;5075623;28;20036;-84
2022/06/09 09:10:53;;;;;;;7.18;2.72;;;20.30;99.90;;;;;;5092575;28;20053;-84
2022/06/09 09:13:21;;;;;;;10.15;2.38;;;19.40;99.90;;;;;;5091906;28;20432;-83
2022/06/09 09:16:01;;;;;;;12.25;2.88;;;18.60;99.90;;;;;;5075095;28;20085;-83
2022/06/09 09:18:39;;;;;;;11.95;2.78;;;18.10;99.90;;;;;;5091277;28;20360;-84
2022/06/09 09:21:07;;;;;;;11.25;2.55;;;18.10;99.90;;;;;;5075261;28;20055;-84
2022/06/09 09:23:46;;;;;;;8.48;2.35;;;18.30;99.90;;;;;;5074289;28;20028;-83
2022/06/09 09:26:31;;;;;;;13.20;3.90;;;19.10;99.90;;;;;;5091958;28;20437;-84
2022/06/09 09:29:16;;;;;;;5.57;2.30;;;18.80;99.90;;;;;;5091943;28;20032;-83
2022/06/09 09:31:56;;;;;;;7.30;2.70;;;18.20;99.90;;;;;;5075224;28;20514;-83
2022/06/09 09:34:34;;;;;;;9.40;2.90;;;17.60;99.90;;;;;;5074731;28;20032;-83
2022/06/09 09:37:21;;;;;;;10.25;2.85;;;17.40;99.90;;;;;;5091080;28;20032;-84
2022/06/09 09:39:57;;;;;;;12.40;2.60;;;17.40;99.90;;;;;;5092999;28;20016;-83
2022/06/09 09:42:28;;;;;;;5.82;2.60;;;18.20;99.90;;;;;;5091717;28;20039;-83
2022/06/09 09:45:19;;;;;;;6.22;2.95;;;18.80;99.90;;;;;;5091840;28;20056;-83
2022/06/09 09:47:54;;;;;;;11.63;3.08;;;18.40;99.90;;;;;;5082075;28;20044;-83
2022/06/09 09:50:26;;;;;;;12.88;3.63;;;18.40;99.90;;;;;;5091499;28;20154;-84
2022/06/09 09:53:21;;;;;;;9.13;3.25;;;18.90;99.90;;;;;;5091574;28;20096;-84
2022/06/09 09:55:58;;;;;;;5.63;2.60;;;19.40;99.90;;;;;;5083428;28;20044;-84
2022/06/09 09:58:54;;;;;;;11.13;3.10;;;19.80;99.90;;;;;;5074011;28;20044;-83
2022/06/09 10:01:19;;;;;;;14.63;3.53;;;19.50;99.90;;;;;;5091247;28;20479;-83
2022/06/09 10:10:19;;;;;;;9.23;3.70;;;17.90;99.90;;;;;;5091340;28;20028;-83
2022/06/09 10:12:45;;;;;;;9.30;4.10;;;17.00;99.90;;;;;;5074205;28;20039;-84
2022/06/09 10:15:11;;;;;;;13.80;4.30;;;16.40;99.90;;;;;;5074121;28;20032;-83
2022/06/09 10:18:14;;;;;;;12.50;3.95;;;15.90;99.90;;;;;;5074377;28;20020;-84
2022/06/09 10:21:01;;;;;;;10.15;4.10;;;15.80;99.90;;;;;;5091402;28;20040;-82
2022/06/09 10:23:32;;;;;;;13.25;3.78;;;16.40;99.90;;;;;;5074195;28;20114;-83
2022/06/09 10:25:58;;;;;;;;;;;17.80;99.90;;;;;;5073867;28;20051;-83
2022/06/09 10:28:34;;;;;;;9.77;3.53;;;18.50;99.90;;;;;;5075535;28;20374;-83
2022/06/09 10:31:15;;;;;;;8.98;3.05;;;18.40;99.90;;;;;;5077885;28;20081;-83
2022/06/09 10:33:50;;;;;;;;;;;17.80;99.90;;;;;;5078215;28;20039;-83
2022/06/09 10:36:44;;;;;;;9.90;3.42;;;17.70;99.90;;;;;;5095517;28;19912;-82
2022/06/09 10:39:28;;;;;;;6.55;2.42;;;17.90;99.90;;;;;;5095271;28;20028;-83
2022/06/09 10:42:00;;;;;;;10.75;3.10;;;18.00;99.90;;;;;;5077960;28;20721;-84
2022/06/09 10:44:31;;;;;;;7.82;2.90;;;18.10;99.90;;;;;;5095018;28;20073;-83
2022/06/09 10:57:38;;;;;;;9.88;3.08;;;16.30;99.90;;;;;;5016935;28;20056;-83
2022/06/09 11:00:18;;;;;;;9.57;2.67;;;16.40;99.90;;;;;;5016795;28;20038;-83
2022/06/09 11:02:50;;;;;;;16.48;3.45;;;16.40;99.90;;;;;;5063571;28;20044;-83
2022/06/09 11:05:19;;;;;;;8.20;3.20;;;16.60;99.90;;;;;;5095541;28;20479;-84
2022/06/09 11:08:04;;;;;;;9.73;3.83;;;17.00;99.90;;;;;;5076920;28;20030;-83
2022/06/09 11:11:08;;;;;;;8.73;2.80;;;17.30;99.90;;;;;;5077053;28;20451;-83
2022/06/09 11:13:45;;;;;;;6.88;2.55;;;18.00;99.90;;;;;;5000251;28;20436;-84
2022/06/09 11:16:27;;;;;;;9.05;2.75;;;18.30;99.90;;;;;;5000424;28;20045;-83
2022/06/09 11:18:58;;;;;;;5.80;2.50;;;18.80;99.90;;;;;;5000661;28;20586;-83
2022/06/09 11:21:29;;;;;;;121.00;67.38;;;19.20;99.90;;;;;;5044688;28;20048;-83
2022/06/09 11:23:58;;;;;;;12.93;4.17;;;19.40;99.90;;;;;;5094075;28;20028;-84
2022/06/09 11:26:23;;;;;;;6.63;2.70;;;19.80;99.90;;;;;;5077384;28;20052;-83
2022/06/09 11:29:13;;;;;;;13.02;3.13;;;19.80;99.90;;;;;;5095420;28;20066;-83
2022/06/09 11:31:57;;;;;;;10.30;2.75;;;19.00;99.90;;;;;;5094610;28;20042;-84
2022/06/09 11:34:38;;;;;;;11.90;2.75;;;18.70;99.90;;;;;;5077079;28;20032;-84
2022/06/09 11:37:28;;;;;;;12.70;2.63;;;18.50;99.90;;;;;;5077264;28;20051;-83
2022/06/09 11:40:11;;;;;;;5.28;2.30;;;18.80;99.90;;;;;;5076471;28;20059;-84
2022/06/09 11:43:01;;;;;;;12.55;3.08;;;18.90;99.90;;;;;;5076830;28;20422;-82
2022/06/09 11:45:33;;;;;;;6.30;3.13;;;18.70;99.90;;;;;;5094282;28;20035;-83
2022/06/09 11:48:03;;;;;;;7.85;2.78;;;18.40;99.90;;;;;;5095029;28;20028;-83
2022/06/09 11:50:35;;;;;;;9.80;2.78;;;18.30;99.90;;;;;;5095830;28;20051;-83
2022/06/09 11:53:02;;;;;;;13.88;3.08;;;18.60;99.90;;;;;;5077017;28;20483;-83
2022/06/09 11:58:35;;;;;;;8.82;3.35;;;19.00;99.90;;;;;;5093945;28;20047;-83
2022/06/09 12:01:20;;;;;;;6.78;2.58;;;19.50;99.90;;;;;;5077165;28;20028;-82
2022/06/09 12:03:58;;;;;;;10.75;4.20;;;20.70;99.90;;;;;;5094807;28;20502;-84
2022/06/09 12:06:47;;;;;;;7.10;2.58;;;20.40;99.90;;;;;;5076628;28;20023;-83
2022/06/09 12:09:40;;;;;;;8.23;2.22;;;20.20;99.90;;;;;;5093494;28;20067;-83
2022/06/09 12:16:20;;;;;;;10.65;3.00;;;19.10;99.90;;;;;;5094965;28;20050;-83
2022/06/09 12:19:14;;;;;;;7.82;2.95;;;18.30;99.90;;;;;;5092471;28;20483;-83
2022/06/09 12:21:44;;;;;;;7.05;2.70;;;18.50;99.90;;;;;;5076375;28;20471;-83
2022/06/09 12:24:20;;;;;;;9.40;2.47;;;18.90;99.90;;;;;;5093155;28;20107;-83
2022/06/09 12:26:56;;;;;;;14.63;3.75;;;19.10;99.90;;;;;;5076564;28;20028;-83
2022/06/09 12:29:30;;;;;;;6.35;2.63;;;19.10;99.90;;;;;;5093225;28;20055;-83
2022/06/09 12:32:08;;;;;;;11.70;2.58;;;19.00;99.90;;;;;;5093241;28;20475;-83
2022/06/09 12:34:41;;;;;;;6.38;2.45;;;19.10;99.90;;;;;;5094168;28;20141;-83
2022/06/09 12:37:19;;;;;;;11.07;3.50;;;18.80;99.90;;;;;;5075785;28;20031;-83
2022/06/09 12:39:52;;;;;;;7.45;2.58;;;18.20;99.90;;;;;;5093395;28;20058;-83
2022/06/09 12:42:41;;;;;;;5.82;2.58;;;17.50;99.90;;;;;;5092697;28;20032;-84
2022/06/09 12:45:16;;;;;;;13.27;3.58;;;16.70;99.90;;;;;;5092830;28;20024;-85
2022/06/09 12:47:58;;;;;;;9.05;3.30;;;15.60;99.90;;;;;;5094259;28;20024;-84
2022/06/09 12:50:36;;;;;;;8.07;2.92;;;14.90;99.90;;;;;;5075904;28;20028;-84
2022/06/09 12:53:04;;;;;;;9.68;2.15;;;14.90;99.90;;;;;;5091999;28;20031;-84
2022/06/09 12:55:37;;;;;;;9.80;2.40;;;15.00;99.90;;;;;;5075048;28;20475;-84
2022/06/09 12:58:15;;;;;;;9.35;2.40;;;15.40;99.90;;;;;;5075164;28;20036;-84
2022/06/09 13:00:47;;;;;;;6.50;1.83;;;16.60;99.90;;;;;;5092233;28;20395;-84
2022/06/09 13:03:21;;;;;;;7.18;2.10;;;18.50;99.90;;;;;;5091842;28;20544;-84
2022/06/09 13:05:47;;;;;;;3.95;1.95;;;20.30;99.90;;;;;;5075713;28;20029;-82
2022/06/09 13:08:26;;;;;;;6.90;2.20;;;20.80;99.90;;;;;;5075348;28;20050;-84
2022/06/09 13:11:01;;;;;;;6.70;2.17;;;20.90;99.90;;;;;;5092503;28;20039;-84
2022/06/09 13:13:38;;;;;;;5.55;2.20;;;20.70;99.90;;;;;;5075258;28;20036;-84
2022/06/09 13:16:20;;;;;;;7.00;1.92;;;20.40;99.90;;;;;;5092288;28;20031;-84
2022/06/09 13:18:53;;;;;;;5.15;2.22;;;19.80;99.90;;;;;;5092419;28;20032;-84
2022/06/09 13:21:20;;;;;;;7.30;1.80;;;19.90;99.90;;;;;;5092385;28;20081;-83
2022/06/09 13:23:50;;;;;;;4.72;1.60;;;20.90;99.90;;;;;;5075073;28;20493;-84
2022/06/09 13:26:26;;;;;;;5.82;1.88;;;21.80;99.90;;;;;;5075069;28;20074;-84
2022/06/09 13:28:57;;;;;;;10.43;2.35;;;21.70;99.90;;;;;;5092122;28;20055;-84
2022/06/09 13:31:26;;;;;;;;;;;20.90;99.90;;;;;;5075580;28;20035;-84
2022/06/09 13:33:59;;;;;;;9.18;2.00;;;20.60;99.90;;;;;;5074812;28;19934;-83
2022/06/09 13:36:32;;;;;;;6.38;2.30;;;20.20;99.90;;;;;;5075563;28;20032;-83
2022/06/09 13:39:27;;;;;;;7.88;2.30;;;20.10;99.90;;;;;;5092046;28;20035;-84
2022/06/09 13:42:14;;;;;;;5.05;1.52;;;21.00;99.90;;;;;;5074843;28;20490;-83
2022/06/09 13:45:02;;;;;;;6.88;1.98;;;21.60;99.90;;;;;;5074584;28;20545;-83
2022/06/09 13:47:35;;;;;;;5.40;1.70;;;21.80;99.90;;;;;;5074802;28;20040;-84
2022/06/09 13:50:14;;;;;;;7.53;1.70;;;22.20;99.90;;;;;;5074785;28;20032;-83
2022/06/09 13:52:44;;;;;;;6.05;1.60;;;21.80;99.90;;;;;;5074755;28;20070;-84